sensor_id;sensor_type;location;lat;lon;timestamp;temperature;humidity
9223;DHT22;7557;51.698;3.942;2023-06-14T00:00:36;21.00;94.30
9223;DHT22;7557;51.698;3.942;2023-06-14T00:03:04;21.10;94.20
9223;DHT22;7557;51.698;3.942;2023-06-14T00:05:32;21.10;94.20
9223;DHT22;7557;51.698;3.942;2023-06-14T00:08:04;21.10;94.10
9223;DHT22;7557;51.698;3.942;2023-06-14T00:10:33;21.00;94.20
9223;DHT22;7557;51.698;3.942;2023-06-14T00:13:02;20.90;94.00
9223;DHT22;7557;51.698;3.942;2023-06-14T00:15:31;20.80;94.10
9223;DHT22;7557;51.698;3.942;2023-06-14T00:17:58;20.60;94.10
9223;DHT22;7557;51.698;3.942;2023-06-14T00:20:26;20.50;94.00
9223;DHT22;7557;51.698;3.942;2023-06-14T00:22:53;20.50;94.10
9223;DHT22;7557;51.698;3.942;2023-06-14T00:25:22;20.50;94.10
9223;DHT22;7557;51.698;3.942;2023-06-14T00:27:51;20.30;94.00
9223;DHT22;7557;51.698;3.942;2023-06-14T00:30:20;20.30;94.10
9223;DHT22;7557;51.698;3.942;2023-06-14T00:32:47;20.30;94.10
9223;DHT22;7557;51.698;3.942;2023-06-14T00:35:15;20.20;94.00
9223;DHT22;7557;51.698;3.942;2023-06-14T00:37:43;20.20;94.10
9223;DHT22;7557;51.698;3.942;2023-06-14T00:40:10;20.20;94.00
9223;DHT22;7557;51.698;3.942;2023-06-14T00:42:38;20.10;93.80
9223;DHT22;7557;51.698;3.942;2023-06-14T00:45:06;20.00;93.80
9223;DHT22;7557;51.698;3.942;2023-06-14T00:47:51;19.90;93.90
9223;DHT22;7557;51.698;3.942;2023-06-14T00:50:21;19.80;93.80
9223;DHT22;7557;51.698;3.942;2023-06-14T00:52:49;19.70;93.80
9223;DHT22;7557;51.698;3.942;2023-06-14T00:55:17;19.60;93.80
9223;DHT22;7557;51.698;3.942;2023-06-14T00:57:45;19.60;94.00
9223;DHT22;7557;51.698;3.942;2023-06-14T01:00:14;19.70;94.10
9223;DHT22;7557;51.698;3.942;2023-06-14T01:02:41;19.70;93.90
9223;DHT22;7557;51.698;3.942;2023-06-14T01:05:10;19.70;93.90
9223;DHT22;7557;51.698;3.942;2023-06-14T01:07:47;19.70;94.10
9223;DHT22;7557;51.698;3.942;2023-06-14T01:10:31;19.80;94.00
9223;DHT22;7557;51.698;3.942;2023-06-14T01:13:05;19.80;94.00
9223;DHT22;7557;51.698;3.942;2023-06-14T01:15:34;19.80;94.00
9223;DHT22;7557;51.698;3.942;2023-06-14T01:18:02;19.60;94.10
9223;DHT22;7557;51.698;3.942;2023-06-14T01:20:32;19.40;94.30
9223;DHT22;7557;51.698;3.942;2023-06-14T01:23:04;19.40;94.30
9223;DHT22;7557;51.698;3.942;2023-06-14T01:25:31;19.50;94.20
9223;DHT22;7557;51.698;3.942;2023-06-14T01:28:00;19.50;94.10
9223;DHT22;7557;51.698;3.942;2023-06-14T01:30:29;19.40;94.20
9223;DHT22;7557;51.698;3.942;2023-06-14T01:32:59;19.40;94.40
9223;DHT22;7557;51.698;3.942;2023-06-14T01:35:26;19.20;94.50
9223;DHT22;7557;51.698;3.942;2023-06-14T01:37:54;19.10;94.80
9223;DHT22;7557;51.698;3.942;2023-06-14T01:40:23;19.00;95.00
9223;DHT22;7557;51.698;3.942;2023-06-14T01:42:51;18.90;95.10
9223;DHT22;7557;51.698;3.942;2023-06-14T01:45:19;18.90;95.10
9223;DHT22;7557;51.698;3.942;2023-06-14T01:47:47;18.90;95.30
9223;DHT22;7557;51.698;3.942;2023-06-14T01:50:14;18.90;95.40
9223;DHT22;7557;51.698;3.942;2023-06-14T01:52:44;18.80;95.50
9223;DHT22;7557;51.698;3.942;2023-06-14T01:55:11;18.80;95.60
9223;DHT22;7557;51.698;3.942;2023-06-14T01:57:40;18.80;95.70
9223;DHT22;7557;51.698;3.942;2023-06-14T02:00:08;18.90;95.70
9223;DHT22;7557;51.698;3.942;2023-06-14T02:02:38;18.90;95.70
9223;DHT22;7557;51.698;3.942;2023-06-14T02:05:05;18.80;96.10
9223;DHT22;7557;51.698;3.942;2023-06-14T02:07:33;18.70;95.90
9223;DHT22;7557;51.698;3.942;2023-06-14T02:10:00;18.60;96.10
9223;DHT22;7557;51.698;3.942;2023-06-14T02:12:28;18.50;96.20
9223;DHT22;7557;51.698;3.942;2023-06-14T02:14:56;18.50;96.20
9223;DHT22;7557;51.698;3.942;2023-06-14T02:17:24;18.50;96.20
9223;DHT22;7557;51.698;3.942;2023-06-14T02:19:51;18.40;96.30
9223;DHT22;7557;51.698;3.942;2023-06-14T02:22:19;18.40;96.40
9223;DHT22;7557;51.698;3.942;2023-06-14T02:24:47;18.40;96.40
9223;DHT22;7557;51.698;3.942;2023-06-14T02:27:15;18.40;96.50
9223;DHT22;7557;51.698;3.942;2023-06-14T02:29:43;18.40;96.40
9223;DHT22;7557;51.698;3.942;2023-06-14T02:32:11;18.40;96.40
9223;DHT22;7557;51.698;3.942;2023-06-14T02:34:39;18.40;96.40
9223;DHT22;7557;51.698;3.942;2023-06-14T02:37:07;18.40;96.40
9223;DHT22;7557;51.698;3.942;2023-06-14T02:39:34;18.50;96.40
9223;DHT22;7557;51.698;3.942;2023-06-14T02:42:02;18.50;96.30
9223;DHT22;7557;51.698;3.942;2023-06-14T02:44:29;18.50;96.20
9223;DHT22;7557;51.698;3.942;2023-06-14T02:46:57;18.40;96.20
9223;DHT22;7557;51.698;3.942;2023-06-14T02:49:28;18.40;96.40
9223;DHT22;7557;51.698;3.942;2023-06-14T02:51:55;18.40;96.30
9223;DHT22;7557;51.698;3.942;2023-06-14T02:54:22;18.50;96.20
9223;DHT22;7557;51.698;3.942;2023-06-14T02:56:50;18.50;96.10
9223;DHT22;7557;51.698;3.942;2023-06-14T02:59:17;18.40;96.20
9223;DHT22;7557;51.698;3.942;2023-06-14T03:01:44;18.40;96.20
9223;DHT22;7557;51.698;3.942;2023-06-14T03:04:12;18.30;96.30
9223;DHT22;7557;51.698;3.942;2023-06-14T03:06:41;18.20;96.40
9223;DHT22;7557;51.698;3.942;2023-06-14T03:09:10;18.10;96.50
9223;DHT22;7557;51.698;3.942;2023-06-14T03:11:37;18.00;96.60
9223;DHT22;7557;51.698;3.942;2023-06-14T03:14:04;18.00;96.70
9223;DHT22;7557;51.698;3.942;2023-06-14T03:16:32;18.00;96.80
9223;DHT22;7557;51.698;3.942;2023-06-14T03:19:00;18.00;96.80
9223;DHT22;7557;51.698;3.942;2023-06-14T03:21:27;18.00;96.90
9223;DHT22;7557;51.698;3.942;2023-06-14T03:23:55;18.00;96.90
9223;DHT22;7557;51.698;3.942;2023-06-14T03:26:23;18.00;96.80
9223;DHT22;7557;51.698;3.942;2023-06-14T03:28:50;18.00;96.80
9223;DHT22;7557;51.698;3.942;2023-06-14T03:31:18;17.90;96.80
9223;DHT22;7557;51.698;3.942;2023-06-14T03:33:46;18.00;97.00
9223;DHT22;7557;51.698;3.942;2023-06-14T03:36:13;18.10;96.90
9223;DHT22;7557;51.698;3.942;2023-06-14T03:38:40;18.10;96.90
9223;DHT22;7557;51.698;3.942;2023-06-14T03:41:09;18.10;96.70
9223;DHT22;7557;51.698;3.942;2023-06-14T03:43:40;18.00;96.70
9223;DHT22;7557;51.698;3.942;2023-06-14T03:46:08;18.00;96.80
9223;DHT22;7557;51.698;3.942;2023-06-14T03:48:35;17.90;96.90
9223;DHT22;7557;51.698;3.942;2023-06-14T03:51:03;17.80;97.00
9223;DHT22;7557;51.698;3.942;2023-06-14T03:53:30;17.80;97.00
9223;DHT22;7557;51.698;3.942;2023-06-14T03:55:57;17.70;97.20
9223;DHT22;7557;51.698;3.942;2023-06-14T03:58:27;17.80;97.30
9223;DHT22;7557;51.698;3.942;2023-06-14T04:00:55;17.80;97.30
9223;DHT22;7557;51.698;3.942;2023-06-14T04:03:22;17.80;97.20
9223;DHT22;7557;51.698;3.942;2023-06-14T04:05:50;17.90;97.10
9223;DHT22;7557;51.698;3.942;2023-06-14T04:08:22;17.90;97.00
9223;DHT22;7557;51.698;3.942;2023-06-14T04:10:50;17.90;97.40
9223;DHT22;7557;51.698;3.942;2023-06-14T04:13:17;18.00;97.00
9223;DHT22;7557;51.698;3.942;2023-06-14T04:15:46;18.10;97.00
9223;DHT22;7557;51.698;3.942;2023-06-14T04:18:14;18.10;96.90
9223;DHT22;7557;51.698;3.942;2023-06-14T04:20:41;18.10;97.00
9223;DHT22;7557;51.698;3.942;2023-06-14T04:23:13;18.10;97.10
9223;DHT22;7557;51.698;3.942;2023-06-14T04:25:41;18.10;97.20
9223;DHT22;7557;51.698;3.942;2023-06-14T04:28:11;18.10;97.20
9223;DHT22;7557;51.698;3.942;2023-06-14T04:30:39;18.10;97.20
9223;DHT22;7557;51.698;3.942;2023-06-14T04:33:08;18.00;97.30
9223;DHT22;7557;51.698;3.942;2023-06-14T04:35:37;18.00;97.40
9223;DHT22;7557;51.698;3.942;2023-06-14T04:38:04;18.10;97.40
9223;DHT22;7557;51.698;3.942;2023-06-14T04:40:35;18.00;97.40
9223;DHT22;7557;51.698;3.942;2023-06-14T04:43:08;18.10;97.40
9223;DHT22;7557;51.698;3.942;2023-06-14T04:45:37;18.30;97.30
9223;DHT22;7557;51.698;3.942;2023-06-14T04:48:05;18.30;97.10
9223;DHT22;7557;51.698;3.942;2023-06-14T04:50:35;18.40;97.20
9223;DHT22;7557;51.698;3.942;2023-06-14T04:53:02;18.40;97.20
9223;DHT22;7557;51.698;3.942;2023-06-14T04:55:29;18.50;97.20
9223;DHT22;7557;51.698;3.942;2023-06-14T04:57:57;18.60;97.10
9223;DHT22;7557;51.698;3.942;2023-06-14T05:00:28;18.60;96.90
9223;DHT22;7557;51.698;3.942;2023-06-14T05:02:56;18.70;96.90
9223;DHT22;7557;51.698;3.942;2023-06-14T05:05:24;18.80;96.80
9223;DHT22;7557;51.698;3.942;2023-06-14T05:07:53;18.90;96.80
9223;DHT22;7557;51.698;3.942;2023-06-14T05:10:20;19.00;96.70
9223;DHT22;7557;51.698;3.942;2023-06-14T05:12:48;19.10;96.60
9223;DHT22;7557;51.698;3.942;2023-06-14T05:15:15;19.20;96.90
9223;DHT22;7557;51.698;3.942;2023-06-14T05:17:44;19.30;96.30
9223;DHT22;7557;51.698;3.942;2023-06-14T05:20:16;19.40;96.10
9223;DHT22;7557;51.698;3.942;2023-06-14T05:22:43;19.50;96.40
9223;DHT22;7557;51.698;3.942;2023-06-14T05:25:12;19.50;95.90
9223;DHT22;7557;51.698;3.942;2023-06-14T05:27:40;19.60;95.90
9223;DHT22;7557;51.698;3.942;2023-06-14T05:30:09;19.70;95.70
9223;DHT22;7557;51.698;3.942;2023-06-14T05:32:39;19.80;95.30
9223;DHT22;7557;51.698;3.942;2023-06-14T05:35:08;19.80;95.30
9223;DHT22;7557;51.698;3.942;2023-06-14T05:37:36;19.90;95.10
9223;DHT22;7557;51.698;3.942;2023-06-14T05:40:05;20.00;95.00
9223;DHT22;7557;51.698;3.942;2023-06-14T05:42:34;20.00;94.40
9223;DHT22;7557;51.698;3.942;2023-06-14T05:45:02;20.10;94.30
9223;DHT22;7557;51.698;3.942;2023-06-14T05:47:30;20.10;94.50
9223;DHT22;7557;51.698;3.942;2023-06-14T05:49:57;20.30;94.10
9223;DHT22;7557;51.698;3.942;2023-06-14T05:52:24;20.40;94.10
9223;DHT22;7557;51.698;3.942;2023-06-14T05:54:52;20.40;94.00
9223;DHT22;7557;51.698;3.942;2023-06-14T05:57:19;20.40;93.50
9223;DHT22;7557;51.698;3.942;2023-06-14T05:59:48;20.40;93.60
9223;DHT22;7557;51.698;3.942;2023-06-14T06:02:16;20.50;93.90
9223;DHT22;7557;51.698;3.942;2023-06-14T06:04:43;20.50;93.80
9223;DHT22;7557;51.698;3.942;2023-06-14T06:07:11;20.60;94.00
9223;DHT22;7557;51.698;3.942;2023-06-14T06:09:38;20.60;93.60
9223;DHT22;7557;51.698;3.942;2023-06-14T06:12:07;20.70;93.90
9223;DHT22;7557;51.698;3.942;2023-06-14T06:14:34;20.70;93.30
9223;DHT22;7557;51.698;3.942;2023-06-14T06:17:04;20.70;93.30
9223;DHT22;7557;51.698;3.942;2023-06-14T06:19:32;20.80;93.10
9223;DHT22;7557;51.698;3.942;2023-06-14T06:21:59;20.80;92.90
9223;DHT22;7557;51.698;3.942;2023-06-14T06:24:27;20.70;93.00
9223;DHT22;7557;51.698;3.942;2023-06-14T06:26:54;20.70;92.80
9223;DHT22;7557;51.698;3.942;2023-06-14T06:29:22;20.80;92.80
9223;DHT22;7557;51.698;3.942;2023-06-14T06:31:49;20.80;92.80
9223;DHT22;7557;51.698;3.942;2023-06-14T06:34:18;20.90;92.80
9223;DHT22;7557;51.698;3.942;2023-06-14T06:36:45;21.00;93.00
9223;DHT22;7557;51.698;3.942;2023-06-14T06:39:13;21.10;92.80
9223;DHT22;7557;51.698;3.942;2023-06-14T06:41:41;21.20;92.70
9223;DHT22;7557;51.698;3.942;2023-06-14T06:44:08;21.30;92.40
9223;DHT22;7557;51.698;3.942;2023-06-14T06:46:36;21.40;93.00
9223;DHT22;7557;51.698;3.942;2023-06-14T06:49:05;21.50;93.00
9223;DHT22;7557;51.698;3.942;2023-06-14T06:51:35;21.60;92.90
9223;DHT22;7557;51.698;3.942;2023-06-14T06:54:02;21.60;92.80
9223;DHT22;7557;51.698;3.942;2023-06-14T06:56:31;21.80;92.50
9223;DHT22;7557;51.698;3.942;2023-06-14T06:58:58;21.80;92.10
9223;DHT22;7557;51.698;3.942;2023-06-14T07:01:26;21.90;91.70
9223;DHT22;7557;51.698;3.942;2023-06-14T07:03:54;21.90;91.90
9223;DHT22;7557;51.698;3.942;2023-06-14T07:06:22;22.00;92.10
9223;DHT22;7557;51.698;3.942;2023-06-14T07:08:54;22.10;92.10
9223;DHT22;7557;51.698;3.942;2023-06-14T07:11:26;22.30;92.20
9223;DHT22;7557;51.698;3.942;2023-06-14T07:13:54;22.50;92.10
9223;DHT22;7557;51.698;3.942;2023-06-14T07:16:21;22.50;91.80
9223;DHT22;7557;51.698;3.942;2023-06-14T07:18:49;22.50;92.00
9223;DHT22;7557;51.698;3.942;2023-06-14T07:21:16;22.60;91.80
9223;DHT22;7557;51.698;3.942;2023-06-14T07:23:44;22.60;91.60
9223;DHT22;7557;51.698;3.942;2023-06-14T07:26:12;22.70;91.80
9223;DHT22;7557;51.698;3.942;2023-06-14T07:28:40;22.70;91.80
9223;DHT22;7557;51.698;3.942;2023-06-14T07:31:10;22.80;91.80
9223;DHT22;7557;51.698;3.942;2023-06-14T07:33:38;22.90;91.80
9223;DHT22;7557;51.698;3.942;2023-06-14T07:36:05;23.20;91.70
9223;DHT22;7557;51.698;3.942;2023-06-14T07:38:33;23.40;91.20
9223;DHT22;7557;51.698;3.942;2023-06-14T07:41:00;23.50;91.20
9223;DHT22;7557;51.698;3.942;2023-06-14T07:43:29;23.50;91.20
9223;DHT22;7557;51.698;3.942;2023-06-14T07:45:57;23.50;91.40
9223;DHT22;7557;51.698;3.942;2023-06-14T07:48:24;23.60;91.50
9223;DHT22;7557;51.698;3.942;2023-06-14T07:50:51;23.80;91.30
9223;DHT22;7557;51.698;3.942;2023-06-14T07:53:19;23.90;91.10
9223;DHT22;7557;51.698;3.942;2023-06-14T07:55:46;23.90;90.70
9223;DHT22;7557;51.698;3.942;2023-06-14T07:58:14;23.80;90.70
9223;DHT22;7557;51.698;3.942;2023-06-14T08:00:43;23.80;90.70
9223;DHT22;7557;51.698;3.942;2023-06-14T08:03:11;23.80;90.90
9223;DHT22;7557;51.698;3.942;2023-06-14T08:05:39;23.80;90.90
9223;DHT22;7557;51.698;3.942;2023-06-14T08:08:07;23.80;91.10
9223;DHT22;7557;51.698;3.942;2023-06-14T08:10:34;23.90;91.20
9223;DHT22;7557;51.698;3.942;2023-06-14T08:13:02;24.00;91.30
9223;DHT22;7557;51.698;3.942;2023-06-14T08:15:29;24.00;90.90
9223;DHT22;7557;51.698;3.942;2023-06-14T08:17:58;24.00;91.00
9223;DHT22;7557;51.698;3.942;2023-06-14T08:20:26;24.00;90.80
9223;DHT22;7557;51.698;3.942;2023-06-14T08:22:56;24.10;90.90
9223;DHT22;7557;51.698;3.942;2023-06-14T08:25:24;24.10;91.00
9223;DHT22;7557;51.698;3.942;2023-06-14T08:27:51;24.20;90.60
9223;DHT22;7557;51.698;3.942;2023-06-14T08:30:19;24.20;90.80
9223;DHT22;7557;51.698;3.942;2023-06-14T08:32:47;24.20;90.50
9223;DHT22;7557;51.698;3.942;2023-06-14T08:35:15;24.30;90.90
9223;DHT22;7557;51.698;3.942;2023-06-14T08:37:44;24.40;90.60
9223;DHT22;7557;51.698;3.942;2023-06-14T08:40:19;24.50;90.30
9223;DHT22;7557;51.698;3.942;2023-06-14T08:42:50;24.50;90.40
9223;DHT22;7557;51.698;3.942;2023-06-14T08:45:18;24.60;90.60
9223;DHT22;7557;51.698;3.942;2023-06-14T08:47:47;24.80;90.50
9223;DHT22;7557;51.698;3.942;2023-06-14T08:50:20;25.00;90.40
9223;DHT22;7557;51.698;3.942;2023-06-14T08:52:53;25.00;90.70
9223;DHT22;7557;51.698;3.942;2023-06-14T08:55:23;25.20;90.30
9223;DHT22;7557;51.698;3.942;2023-06-14T08:57:54;25.30;89.90
9223;DHT22;7557;51.698;3.942;2023-06-14T09:00:26;25.50;88.00
9223;DHT22;7557;51.698;3.942;2023-06-14T09:02:54;25.60;87.60
9223;DHT22;7557;51.698;3.942;2023-06-14T09:05:25;25.70;87.30
9223;DHT22;7557;51.698;3.942;2023-06-14T09:07:53;25.80;88.50
9223;DHT22;7557;51.698;3.942;2023-06-14T09:10:22;25.90;87.20
9223;DHT22;7557;51.698;3.942;2023-06-14T09:12:51;26.00;85.40
9223;DHT22;7557;51.698;3.942;2023-06-14T09:15:19;25.90;86.70
9223;DHT22;7557;51.698;3.942;2023-06-14T09:17:46;25.90;86.70
9223;DHT22;7557;51.698;3.942;2023-06-14T09:20:13;25.80;86.40
9223;DHT22;7557;51.698;3.942;2023-06-14T09:22:45;25.70;85.90
9223;DHT22;7557;51.698;3.942;2023-06-14T09:25:13;25.60;85.70
9223;DHT22;7557;51.698;3.942;2023-06-14T09:27:42;25.60;86.60
9223;DHT22;7557;51.698;3.942;2023-06-14T09:30:10;25.60;87.10
9223;DHT22;7557;51.698;3.942;2023-06-14T09:32:38;25.80;87.00
9223;DHT22;7557;51.698;3.942;2023-06-14T09:35:07;25.90;87.10
9223;DHT22;7557;51.698;3.942;2023-06-14T09:37:35;25.90;86.10
9223;DHT22;7557;51.698;3.942;2023-06-14T09:40:07;25.90;86.40
9223;DHT22;7557;51.698;3.942;2023-06-14T09:42:35;25.90;86.60
9223;DHT22;7557;51.698;3.942;2023-06-14T09:45:03;26.00;86.70
9223;DHT22;7557;51.698;3.942;2023-06-14T09:47:31;26.20;86.40
9223;DHT22;7557;51.698;3.942;2023-06-14T09:49:59;26.20;86.10
9223;DHT22;7557;51.698;3.942;2023-06-14T09:52:27;26.20;86.30
9223;DHT22;7557;51.698;3.942;2023-06-14T09:54:56;26.20;86.40
9223;DHT22;7557;51.698;3.942;2023-06-14T09:57:27;26.20;87.00
9223;DHT22;7557;51.698;3.942;2023-06-14T10:00:00;26.30;85.60
9223;DHT22;7557;51.698;3.942;2023-06-14T10:02:35;26.40;85.80
9223;DHT22;7557;51.698;3.942;2023-06-14T10:05:04;26.40;84.90
9223;DHT22;7557;51.698;3.942;2023-06-14T10:07:40;26.50;85.00
9223;DHT22;7557;51.698;3.942;2023-06-14T10:10:08;26.60;85.10
9223;DHT22;7557;51.698;3.942;2023-06-14T10:12:38;26.60;83.70
9223;DHT22;7557;51.698;3.942;2023-06-14T10:15:09;26.60;83.50
9223;DHT22;7557;51.698;3.942;2023-06-14T10:17:43;26.60;82.50
9223;DHT22;7557;51.698;3.942;2023-06-14T10:20:23;26.50;82.60
9223;DHT22;7557;51.698;3.942;2023-06-14T10:22:58;26.50;82.80
9223;DHT22;7557;51.698;3.942;2023-06-14T10:25:27;26.50;82.20
9223;DHT22;7557;51.698;3.942;2023-06-14T10:28:21;26.50;82.90
9223;DHT22;7557;51.698;3.942;2023-06-14T10:31:08;26.70;83.30
9223;DHT22;7557;51.698;3.942;2023-06-14T10:33:39;26.80;81.00
9223;DHT22;7557;51.698;3.942;2023-06-14T10:36:25;26.80;82.10
9223;DHT22;7557;51.698;3.942;2023-06-14T10:38:58;26.90;81.60
9223;DHT22;7557;51.698;3.942;2023-06-14T10:41:27;26.80;81.80
9223;DHT22;7557;51.698;3.942;2023-06-14T10:46:59;27.00;82.60
9223;DHT22;7557;51.698;3.942;2023-06-14T10:49:40;27.00;80.30
9223;DHT22;7557;51.698;3.942;2023-06-14T10:52:10;27.10;79.90
9223;DHT22;7557;51.698;3.942;2023-06-14T10:55:00;27.20;79.30
9223;DHT22;7557;51.698;3.942;2023-06-14T10:57:29;27.10;78.10
9223;DHT22;7557;51.698;3.942;2023-06-14T10:59:58;27.20;78.10
9223;DHT22;7557;51.698;3.942;2023-06-14T11:05:29;27.20;76.70
9223;DHT22;7557;51.698;3.942;2023-06-14T11:08:12;27.20;77.90
9223;DHT22;7557;51.698;3.942;2023-06-14T11:10:44;27.20;76.20
9223;DHT22;7557;51.698;3.942;2023-06-14T11:13:12;27.30;75.40
9223;DHT22;7557;51.698;3.942;2023-06-14T11:15:45;27.30;76.30
9223;DHT22;7557;51.698;3.942;2023-06-14T11:18:14;27.30;77.20
9223;DHT22;7557;51.698;3.942;2023-06-14T11:20:46;27.40;76.80
9223;DHT22;7557;51.698;3.942;2023-06-14T11:23:14;27.50;75.10
9223;DHT22;7557;51.698;3.942;2023-06-14T11:25:42;27.40;76.30
9223;DHT22;7557;51.698;3.942;2023-06-14T11:28:09;27.50;77.00
9223;DHT22;7557;51.698;3.942;2023-06-14T11:30:36;27.50;75.50
9223;DHT22;7557;51.698;3.942;2023-06-14T11:33:04;27.50;76.30
9223;DHT22;7557;51.698;3.942;2023-06-14T11:35:34;27.50;75.10
9223;DHT22;7557;51.698;3.942;2023-06-14T11:38:02;27.50;76.20
9223;DHT22;7557;51.698;3.942;2023-06-14T11:40:30;27.60;76.60
9223;DHT22;7557;51.698;3.942;2023-06-14T11:42:59;27.60;76.50
9223;DHT22;7557;51.698;3.942;2023-06-14T11:45:27;27.70;77.30
9223;DHT22;7557;51.698;3.942;2023-06-14T11:47:55;27.70;76.10
9223;DHT22;7557;51.698;3.942;2023-06-14T11:50:24;27.70;76.40
9223;DHT22;7557;51.698;3.942;2023-06-14T11:52:57;27.70;77.30
9223;DHT22;7557;51.698;3.942;2023-06-14T11:55:25;27.80;76.30
9223;DHT22;7557;51.698;3.942;2023-06-14T11:57:54;27.70;76.40
9223;DHT22;7557;51.698;3.942;2023-06-14T12:00:25;27.70;76.50
9223;DHT22;7557;51.698;3.942;2023-06-14T12:02:53;27.80;76.20
9223;DHT22;7557;51.698;3.942;2023-06-14T12:05:22;27.90;75.70
9223;DHT22;7557;51.698;3.942;2023-06-14T12:07:50;27.90;75.30
9223;DHT22;7557;51.698;3.942;2023-06-14T12:10:20;27.90;75.90
9223;DHT22;7557;51.698;3.942;2023-06-14T12:12:48;27.90;76.50
9223;DHT22;7557;51.698;3.942;2023-06-14T12:15:16;27.90;76.30
9223;DHT22;7557;51.698;3.942;2023-06-14T12:17:44;27.90;75.90
9223;DHT22;7557;51.698;3.942;2023-06-14T12:20:13;27.90;74.60
9223;DHT22;7557;51.698;3.942;2023-06-14T12:22:50;27.80;73.30
9223;DHT22;7557;51.698;3.942;2023-06-14T12:25:29;27.70;74.90
9223;DHT22;7557;51.698;3.942;2023-06-14T12:27:58;27.80;74.40
9223;DHT22;7557;51.698;3.942;2023-06-14T12:30:25;27.80;75.40
9223;DHT22;7557;51.698;3.942;2023-06-14T12:32:53;27.80;74.00
9223;DHT22;7557;51.698;3.942;2023-06-14T12:35:20;27.90;75.10
9223;DHT22;7557;51.698;3.942;2023-06-14T12:37:48;27.90;73.70
9223;DHT22;7557;51.698;3.942;2023-06-14T12:40:15;27.90;72.10
9223;DHT22;7557;51.698;3.942;2023-06-14T12:42:44;27.80;74.00
9223;DHT22;7557;51.698;3.942;2023-06-14T12:45:13;27.90;71.50
9223;DHT22;7557;51.698;3.942;2023-06-14T12:47:40;28.00;71.40
9223;DHT22;7557;51.698;3.942;2023-06-14T12:50:08;28.00;71.70
9223;DHT22;7557;51.698;3.942;2023-06-14T12:52:36;28.00;70.80
9223;DHT22;7557;51.698;3.942;2023-06-14T12:55:04;28.00;71.50
9223;DHT22;7557;51.698;3.942;2023-06-14T12:57:32;28.00;70.60
9223;DHT22;7557;51.698;3.942;2023-06-14T13:00:05;27.90;70.50
9223;DHT22;7557;51.698;3.942;2023-06-14T13:02:33;27.90;70.30
9223;DHT22;7557;51.698;3.942;2023-06-14T13:05:00;27.90;72.00
9223;DHT22;7557;51.698;3.942;2023-06-14T13:07:29;28.00;70.30
9223;DHT22;7557;51.698;3.942;2023-06-14T13:09:57;28.00;71.20
9223;DHT22;7557;51.698;3.942;2023-06-14T13:12:24;27.90;71.00
9223;DHT22;7557;51.698;3.942;2023-06-14T13:14:52;28.00;71.40
9223;DHT22;7557;51.698;3.942;2023-06-14T13:17:21;27.90;70.80
9223;DHT22;7557;51.698;3.942;2023-06-14T13:19:48;27.80;70.70
9223;DHT22;7557;51.698;3.942;2023-06-14T13:22:16;27.80;70.30
9223;DHT22;7557;51.698;3.942;2023-06-14T13:24:43;27.80;70.50
9223;DHT22;7557;51.698;3.942;2023-06-14T13:27:10;27.80;68.70
9223;DHT22;7557;51.698;3.942;2023-06-14T13:29:40;27.80;69.20
9223;DHT22;7557;51.698;3.942;2023-06-14T13:32:07;27.90;67.40
9223;DHT22;7557;51.698;3.942;2023-06-14T13:34:37;28.00;67.80
9223;DHT22;7557;51.698;3.942;2023-06-14T13:37:05;28.10;67.70
9223;DHT22;7557;51.698;3.942;2023-06-14T13:39:32;28.00;68.70
9223;DHT22;7557;51.698;3.942;2023-06-14T13:41:59;28.00;68.80
9223;DHT22;7557;51.698;3.942;2023-06-14T13:44:27;28.10;67.90
9223;DHT22;7557;51.698;3.942;2023-06-14T13:46:54;28.10;68.90
9223;DHT22;7557;51.698;3.942;2023-06-14T13:49:24;28.20;69.40
9223;DHT22;7557;51.698;3.942;2023-06-14T13:51:53;28.20;68.30
9223;DHT22;7557;51.698;3.942;2023-06-14T13:54:20;28.20;67.50
9223;DHT22;7557;51.698;3.942;2023-06-14T13:56:48;28.20;67.90
9223;DHT22;7557;51.698;3.942;2023-06-14T13:59:16;28.10;66.60
9223;DHT22;7557;51.698;3.942;2023-06-14T14:01:44;28.10;67.90
9223;DHT22;7557;51.698;3.942;2023-06-14T14:04:11;28.10;68.80
9223;DHT22;7557;51.698;3.942;2023-06-14T14:06:38;28.00;69.10
9223;DHT22;7557;51.698;3.942;2023-06-14T14:09:08;28.00;70.20
9223;DHT22;7557;51.698;3.942;2023-06-14T14:11:36;28.10;69.50
9223;DHT22;7557;51.698;3.942;2023-06-14T14:14:04;28.30;70.40
9223;DHT22;7557;51.698;3.942;2023-06-14T14:16:31;28.40;66.50
9223;DHT22;7557;51.698;3.942;2023-06-14T14:18:59;28.30;68.50
9223;DHT22;7557;51.698;3.942;2023-06-14T14:21:28;28.30;68.10
9223;DHT22;7557;51.698;3.942;2023-06-14T14:23:56;28.30;68.50
9223;DHT22;7557;51.698;3.942;2023-06-14T14:26:26;28.20;68.60
9223;DHT22;7557;51.698;3.942;2023-06-14T14:28:56;28.00;68.80
9223;DHT22;7557;51.698;3.942;2023-06-14T14:31:24;27.90;67.80
9223;DHT22;7557;51.698;3.942;2023-06-14T14:33:51;27.80;69.00
9223;DHT22;7557;51.698;3.942;2023-06-14T14:36:19;27.90;69.10
9223;DHT22;7557;51.698;3.942;2023-06-14T14:38:46;27.80;69.50
9223;DHT22;7557;51.698;3.942;2023-06-14T14:41:14;27.90;69.70
9223;DHT22;7557;51.698;3.942;2023-06-14T14:43:43;28.00;68.50
9223;DHT22;7557;51.698;3.942;2023-06-14T14:46:10;28.10;68.60
9223;DHT22;7557;51.698;3.942;2023-06-14T14:48:38;28.10;70.10
9223;DHT22;7557;51.698;3.942;2023-06-14T14:51:05;28.10;69.80
9223;DHT22;7557;51.698;3.942;2023-06-14T14:53:32;28.00;70.60
9223;DHT22;7557;51.698;3.942;2023-06-14T14:56:00;28.00;69.60
9223;DHT22;7557;51.698;3.942;2023-06-14T14:58:28;28.00;69.20
9223;DHT22;7557;51.698;3.942;2023-06-14T15:00:57;27.90;69.50
9223;DHT22;7557;51.698;3.942;2023-06-14T15:03:24;28.00;68.40
9223;DHT22;7557;51.698;3.942;2023-06-14T15:05:51;28.00;69.20
9223;DHT22;7557;51.698;3.942;2023-06-14T15:08:20;27.90;68.30
9223;DHT22;7557;51.698;3.942;2023-06-14T15:10:48;27.90;69.60
9223;DHT22;7557;51.698;3.942;2023-06-14T15:13:15;27.90;68.10
9223;DHT22;7557;51.698;3.942;2023-06-14T15:15:43;27.90;67.10
9223;DHT22;7557;51.698;3.942;2023-06-14T15:18:11;27.90;68.10
9223;DHT22;7557;51.698;3.942;2023-06-14T15:20:40;27.90;68.80
9223;DHT22;7557;51.698;3.942;2023-06-14T15:23:08;27.90;69.80
9223;DHT22;7557;51.698;3.942;2023-06-14T15:25:36;28.00;69.50
9223;DHT22;7557;51.698;3.942;2023-06-14T15:28:03;28.00;69.60
9223;DHT22;7557;51.698;3.942;2023-06-14T15:30:32;28.00;69.90
9223;DHT22;7557;51.698;3.942;2023-06-14T15:33:00;28.00;70.00
9223;DHT22;7557;51.698;3.942;2023-06-14T15:35:29;27.90;68.70
9223;DHT22;7557;51.698;3.942;2023-06-14T15:37:56;27.80;67.70
9223;DHT22;7557;51.698;3.942;2023-06-14T15:40:24;27.60;69.50
9223;DHT22;7557;51.698;3.942;2023-06-14T15:42:51;27.60;69.60
9223;DHT22;7557;51.698;3.942;2023-06-14T15:45:19;27.70;70.00
9223;DHT22;7557;51.698;3.942;2023-06-14T15:47:46;27.70;70.50
9223;DHT22;7557;51.698;3.942;2023-06-14T15:50:14;27.70;69.80
9223;DHT22;7557;51.698;3.942;2023-06-14T15:52:43;27.70;70.00
9223;DHT22;7557;51.698;3.942;2023-06-14T15:55:10;27.60;69.50
9223;DHT22;7557;51.698;3.942;2023-06-14T15:57:37;27.60;70.10
9223;DHT22;7557;51.698;3.942;2023-06-14T16:00:06;27.70;71.10
9223;DHT22;7557;51.698;3.942;2023-06-14T16:02:33;27.60;70.20
9223;DHT22;7557;51.698;3.942;2023-06-14T16:05:01;27.60;69.90
9223;DHT22;7557;51.698;3.942;2023-06-14T16:07:29;27.50;69.70
9223;DHT22;7557;51.698;3.942;2023-06-14T16:09:59;27.50;69.60
9223;DHT22;7557;51.698;3.942;2023-06-14T16:12:29;27.40;68.90
9223;DHT22;7557;51.698;3.942;2023-06-14T16:14:57;27.40;68.70
9223;DHT22;7557;51.698;3.942;2023-06-14T16:17:24;27.40;68.80